Time;durP1;ratioP1;P1;durP2;ratioP2;P2;SDS_P1;SDS_P2;PMS_P1;PMS_P2;Temp;Humidity;BMP_temperature;BMP_pressure;BME280_temperature;BME280_humidity;BME280_pressure;Samples;Min_cycle;Max_cycle;Signal;HPM_P1;HPM_P2
2022/11/08 00:02:39;;;;;;;6.07;1.80;;;13.10;99.90;;;;;;5042180;28;20758;-65
2022/11/08 00:16:06;;;;;;;6.35;2.22;;;12.90;99.90;;;;;;5027164;28;20777;-65
2022/11/08 00:18:32;;;;;;;3.13;1.85;;;12.80;99.90;;;;;;5047158;28;20310;-64
2022/11/08 00:21:02;;;;;;;5.25;2.15;;;12.80;99.90;;;;;;5016944;28;21539;-65
2022/11/08 00:23:29;;;;;;;7.70;2.13;;;12.70;99.90;;;;;;5046441;28;20215;-65
2022/11/08 00:25:57;;;;;;;9.95;2.40;;;12.70;99.90;;;;;;5034653;28;20306;-65
2022/11/08 00:28:24;;;;;;;5.45;2.60;;;12.70;99.90;;;;;;5028742;28;20201;-65
2022/11/08 00:30:51;;;;;;;7.07;2.20;;;12.60;99.90;;;;;;5035838;28;20225;-65
2022/11/08 00:33:18;;;;;;;3.42;2.13;;;12.70;99.90;;;;;;5037902;28;20307;-64
2022/11/08 00:35:45;;;;;;;5.97;2.17;;;12.60;99.90;;;;;;5013834;28;20225;-66
2022/11/08 00:38:12;;;;;;;6.75;1.98;;;12.60;99.90;;;;;;5038939;28;20204;-64
2022/11/08 00:40:38;;;;;;;5.85;2.15;;;12.70;99.90;;;;;;5036365;28;20351;-64
2022/11/08 00:43:07;;;;;;;6.47;2.15;;;12.70;99.90;;;;;;5021021;28;20295;-65
2022/11/08 00:45:34;;;;;;;6.85;2.25;;;12.70;99.90;;;;;;5047671;28;20288;-64
2022/11/08 00:48:00;;;;;;;8.05;2.17;;;12.70;99.90;;;;;;5026692;28;21073;-64
2022/11/08 00:50:28;;;;;;;8.13;2.40;;;12.80;99.90;;;;;;5015205;28;20610;-65
2022/11/08 00:52:55;;;;;;;6.55;2.30;;;12.70;99.90;;;;;;5038541;28;20315;-64
2022/11/08 00:55:22;;;;;;;6.30;2.30;;;12.80;99.90;;;;;;5032323;28;20213;-65
2022/11/08 00:57:49;;;;;;;6.30;2.38;;;12.80;99.90;;;;;;5028314;28;20287;-65
2022/11/08 01:00:18;;;;;;;6.10;2.50;;;12.80;99.90;;;;;;5051584;28;20328;-65
2022/11/08 01:02:45;;;;;;;5.68;1.83;;;12.90;99.90;;;;;;5037049;28;20370;-65
2022/11/08 01:05:12;;;;;;;5.85;2.00;;;12.90;99.90;;;;;;5021603;28;21801;-64
2022/11/08 01:07:39;;;;;;;5.18;2.20;;;12.90;99.90;;;;;;5033206;28;20312;-64
2022/11/08 01:10:06;;;;;;;6.82;2.67;;;12.80;99.90;;;;;;5042678;28;20224;-65
2022/11/08 01:12:34;;;;;;;6.80;2.28;;;12.90;99.90;;;;;;5020167;28;20201;-65
2022/11/08 01:15:00;;;;;;;7.88;2.20;;;12.90;99.90;;;;;;5048750;28;20901;-65
2022/11/08 01:17:28;;;;;;;6.18;2.15;;;12.90;99.90;;;;;;5031363;28;20343;-65
2022/11/08 01:19:56;;;;;;;5.55;1.90;;;12.90;99.90;;;;;;5023498;28;20232;-65
2022/11/08 01:22:22;;;;;;;9.63;2.08;;;12.90;99.90;;;;;;5036861;28;20251;-65
2022/11/08 01:24:49;;;;;;;5.68;2.28;;;12.90;99.90;;;;;;5050387;28;20220;-65
2022/11/08 01:27:16;;;;;;;4.40;1.42;;;12.90;99.90;;;;;;5034594;28;20228;-64
2022/11/08 01:29:43;;;;;;;5.40;1.98;;;12.90;99.90;;;;;;5026109;28;20709;-64
2022/11/08 01:32:10;;;;;;;4.90;2.30;;;12.80;99.90;;;;;;5046943;28;20295;-64
2022/11/08 01:34:38;;;;;;;4.47;1.73;;;12.90;99.90;;;;;;5035955;28;20304;-64
2022/11/08 01:37:05;;;;;;;5.07;2.17;;;12.90;99.90;;;;;;5011701;28;20956;-65
2022/11/08 01:39:32;;;;;;;5.80;2.08;;;12.90;99.90;;;;;;5047882;28;20224;-64
2022/11/08 01:41:58;;;;;;;5.70;1.95;;;12.80;99.90;;;;;;5033625;28;20236;-65
2022/11/08 01:44:25;;;;;;;3.97;1.88;;;12.90;99.90;;;;;;5032091;28;20365;-65
2022/11/08 01:46:52;;;;;;;5.97;2.33;;;12.90;99.90;;;;;;5047981;28;20697;-64
2022/11/08 01:49:37;;;;;;;5.50;1.92;;;12.80;99.90;;;;;;5036049;28;20288;-65
2022/11/08 01:52:27;;;;;;;7.63;2.30;;;12.80;99.90;;;;;;5018054;28;20320;-65
2022/11/08 01:55:00;;;;;;;4.15;2.22;;;12.80;99.90;;;;;;5049502;28;20324;-65
2022/11/08 01:57:33;;;;;;;6.82;2.10;;;12.80;99.90;;;;;;5037604;28;20288;-65
2022/11/08 02:00:04;;;;;;;6.13;2.17;;;12.80;99.90;;;;;;5029793;28;20759;-64
2022/11/08 02:02:33;;;;;;;6.82;2.63;;;12.80;99.90;;;;;;5049879;28;20193;-65
2022/11/08 02:05:01;;;;;;;4.38;2.00;;;12.80;99.90;;;;;;5037360;28;20993;-65
2022/11/08 02:07:30;;;;;;;3.75;1.90;;;12.70;99.90;;;;;;5002655;28;20596;-65
2022/11/08 02:09:57;;;;;;;7.65;2.17;;;12.80;99.90;;;;;;5043555;28;20229;-65
2022/11/08 02:12:26;;;;;;;7.32;1.73;;;12.80;99.90;;;;;;5035135;28;20692;-65
2022/11/08 02:14:53;;;;;;;3.78;2.03;;;12.80;99.90;;;;;;5018456;28;20201;-65
2022/11/08 02:17:20;;;;;;;4.18;1.88;;;12.70;99.90;;;;;;5048536;28;20204;-65
2022/11/08 02:19:49;;;;;;;4.68;1.92;;;12.70;99.90;;;;;;5028875;28;20301;-64
2022/11/08 02:22:24;;;;;;;6.03;2.00;;;12.70;99.90;;;;;;5020688;28;20219;-65
2022/11/08 02:24:53;;;;;;;7.88;2.22;;;12.70;99.90;;;;;;5044068;28;20743;-65
2022/11/08 02:27:19;;;;;;;7.45;2.78;;;12.70;99.90;;;;;;5047063;28;20211;-64
2022/11/08 02:29:46;;;;;;;8.30;2.33;;;12.70;99.90;;;;;;5028108;28;20297;-65
2022/11/08 02:32:13;;;;;;;5.47;1.80;;;12.70;99.90;;;;;;5036017;28;20222;-65
2022/11/08 02:34:45;;;;;;;7.28;2.10;;;12.70;99.90;;;;;;5019876;28;20295;-64
2022/11/08 02:37:15;;;;;;;7.00;2.15;;;12.70;99.90;;;;;;5033173;28;20323;-65
2022/11/08 02:39:43;;;;;;;6.85;2.03;;;12.70;99.90;;;;;;5017393;28;20239;-65
2022/11/08 02:42:15;;;;;;;6.80;2.10;;;12.60;99.90;;;;;;5048630;28;20294;-65
2022/11/08 02:44:42;;;;;;;8.40;2.10;;;12.60;99.90;;;;;;5034891;28;20320;-65
2022/11/08 02:47:09;;;;;;;8.70;1.90;;;12.60;99.90;;;;;;5038300;28;20265;-65
2022/11/08 02:49:36;;;;;;;4.18;1.98;;;12.50;99.90;;;;;;5037069;28;20316;-66
2022/11/08 02:52:03;;;;;;;9.10;2.28;;;12.60;99.90;;;;;;5042649;28;20719;-68
2022/11/08 02:54:30;;;;;;;3.20;2.08;;;12.50;99.90;;;;;;5017525;28;20354;-64
2022/11/08 02:56:57;;;;;;;6.10;2.38;;;12.50;99.90;;;;;;5050383;28;20250;-64
2022/11/08 02:59:25;;;;;;;4.00;1.63;;;12.50;99.90;;;;;;5040148;28;20971;-64
2022/11/08 03:01:52;;;;;;;9.07;1.90;;;12.40;99.90;;;;;;5032678;28;20767;-64
2022/11/08 03:04:19;;;;;;;5.93;2.15;;;12.40;99.90;;;;;;5049086;28;22157;-64
2022/11/08 03:06:46;;;;;;;5.47;2.20;;;12.40;99.90;;;;;;5028873;28;21397;-64
2022/11/08 03:09:13;;;;;;;6.80;2.40;;;12.40;99.90;;;;;;5012402;28;20254;-65
2022/11/08 03:11:40;;;;;;;6.65;1.98;;;12.40;99.90;;;;;;5033529;28;20700;-64
2022/11/08 03:14:07;;;;;;;6.18;2.03;;;12.40;99.90;;;;;;5026823;28;20239;-65
2022/11/08 03:16:35;;;;;;;13.63;2.15;;;12.40;99.90;;;;;;5035672;28;20201;-64
2022/11/08 03:19:02;;;;;;;5.40;2.08;;;12.40;99.90;;;;;;5045682;28;20299;-65
2022/11/08 03:21:28;;;;;;;7.07;2.13;;;12.40;99.90;;;;;;5037382;28;20304;-64
2022/11/08 03:23:56;;;;;;;6.75;2.53;;;12.30;99.90;;;;;;5022608;28;20354;-65
2022/11/08 03:26:23;;;;;;;5.47;2.25;;;12.30;99.90;;;;;;5049175;28;20193;-64
2022/11/08 03:28:49;;;;;;;5.93;2.72;;;12.20;99.90;;;;;;5040192;28;20283;-64
2022/11/08 03:31:16;;;;;;;4.90;1.90;;;12.20;99.90;;;;;;5029446;28;20260;-65
2022/11/08 03:33:44;;;;;;;7.63;2.25;;;12.30;99.90;;;;;;5055085;28;20351;-64
2022/11/08 03:36:11;;;;;;;7.10;2.25;;;12.20;99.90;;;;;;5027532;28;21313;-64
2022/11/08 03:38:38;;;;;;;7.10;2.35;;;12.20;99.90;;;;;;5025825;28;20808;-64
2022/11/08 03:41:05;;;;;;;7.13;2.20;;;12.10;99.90;;;;;;5037529;28;20282;-64
2022/11/08 03:43:32;;;;;;;6.90;1.98;;;12.10;99.90;;;;;;5050753;28;20219;-65
2022/11/08 03:45:59;;;;;;;4.90;2.20;;;12.10;99.90;;;;;;5035251;28;20288;-64
2022/11/08 03:48:26;;;;;;;6.43;2.28;;;12.00;99.90;;;;;;5033603;28;20209;-66
2022/11/08 03:50:54;;;;;;;5.78;2.20;;;12.00;99.90;;;;;;5040364;28;20319;-65
2022/11/08 03:53:21;;;;;;;5.82;2.30;;;12.00;99.90;;;;;;5041186;28;20291;-65
2022/11/08 03:55:47;;;;;;;6.63;2.50;;;12.00;99.90;;;;;;5019608;28;20205;-64
2022/11/08 03:58:14;;;;;;;5.35;2.13;;;12.00;99.90;;;;;;5031657;28;20212;-65
2022/11/08 04:00:41;;;;;;;6.13;2.20;;;12.00;99.90;;;;;;5043585;28;20840;-64
2022/11/08 04:03:09;;;;;;;5.95;2.53;;;11.90;99.90;;;;;;5024332;28;20595;-65
2022/11/08 04:05:36;;;;;;;9.15;2.00;;;11.90;99.90;;;;;;5049039;28;20296;-64
2022/11/08 04:08:05;;;;;;;4.82;1.90;;;11.90;99.90;;;;;;5034425;28;20350;-64
2022/11/08 04:10:32;;;;;;;3.17;1.95;;;12.00;99.90;;;;;;5020285;28;20595;-64
2022/11/08 04:15:46;;;;;;;10.75;2.35;;;11.90;99.90;;;;;;5045263;28;20204;-64
2022/11/08 04:21:19;;;;;;;7.18;2.40;;;11.90;99.90;;;;;;5030753;28;20231;-65
2022/11/08 04:23:48;;;;;;;3.67;2.13;;;11.80;99.90;;;;;;5048951;28;20305;-64
2022/11/08 04:26:15;;;;;;;4.97;2.15;;;11.90;99.90;;;;;;5013983;28;20252;-65
2022/11/08 04:28:43;;;;;;;6.38;2.00;;;11.90;99.90;;;;;;5029995;28;20200;-65
2022/11/08 04:31:12;;;;;;;6.18;2.05;;;11.80;99.90;;;;;;5032565;28;20231;-64
2022/11/08 04:33:39;;;;;;;5.28;2.22;;;11.80;99.90;;;;;;5026080;28;20422;-64
2022/11/08 04:36:08;;;;;;;4.22;2.28;;;11.90;99.90;;;;;;5029431;28;20201;-64
2022/11/08 04:38:35;;;;;;;4.13;2.08;;;11.90;99.90;;;;;;5037534;28;21228;-64
2022/11/08 04:41:07;;;;;;;6.82;2.25;;;11.80;99.90;;;;;;5015169;28;20228;-64
2022/11/08 04:43:34;;;;;;;8.65;1.83;;;11.80;99.90;;;;;;5033598;28;20270;-64
2022/11/08 04:46:03;;;;;;;8.38;2.75;;;11.90;99.90;;;;;;5046039;28;20696;-64
2022/11/08 04:48:31;;;;;;;5.95;1.70;;;11.90;99.90;;;;;;5033811;28;21225;-64
2022/11/08 04:51:02;;;;;;;4.80;1.95;;;11.90;99.90;;;;;;5018411;28;21182;-64
2022/11/08 04:53:29;;;;;;;6.22;1.85;;;11.90;99.90;;;;;;5037557;28;20242;-65
2022/11/08 04:56:01;;;;;;;6.13;1.95;;;11.90;99.90;;;;;;5019539;28;20328;-64
2022/11/08 04:58:32;;;;;;;4.30;1.73;;;11.90;99.90;;;;;;5018089;28;20306;-64
2022/11/08 05:01:03;;;;;;;9.07;2.38;;;11.90;99.90;;;;;;5039551;28;20440;-64
2022/11/08 05:03:30;;;;;;;7.75;2.08;;;11.90;99.90;;;;;;5020389;28;20208;-65
2022/11/08 05:06:01;;;;;;;6.75;1.83;;;11.90;99.90;;;;;;5028770;28;20291;-64
2022/11/08 05:08:28;;;;;;;6.32;2.08;;;11.80;99.90;;;;;;5032714;28;20337;-64
2022/11/08 05:11:00;;;;;;;5.32;1.83;;;11.80;99.90;;;;;;4996802;28;20606;-64
2022/11/08 05:13:28;;;;;;;7.95;1.85;;;11.80;99.90;;;;;;5013001;28;20433;-65
2022/11/08 05:16:00;;;;;;;8.27;2.05;;;11.80;99.90;;;;;;5029738;28;20323;-64
2022/11/08 05:18:26;;;;;;;3.10;2.05;;;11.80;99.90;;;;;;5039507;28;20437;-64
2022/11/08 05:23:38;;;;;;;4.90;2.10;;;11.80;99.90;;;;;;5032376;28;20235;-64
2022/11/08 05:26:06;;;;;;;6.18;2.15;;;11.70;99.90;;;;;;4984460;28;20365;-66
2022/11/08 05:28:34;;;;;;;4.05;1.60;;;11.70;99.90;;;;;;5011159;28;20377;-64
2022/11/08 05:31:01;;;;;;;5.68;2.00;;;11.70;99.90;;;;;;5008091;28;20232;-64
2022/11/08 05:33:28;;;;;;;7.07;1.90;;;11.70;99.90;;;;;;5022529;28;20255;-64
2022/11/08 05:35:55;;;;;;;3.30;1.98;;;11.60;99.90;;;;;;5003332;28;20328;-64
2022/11/08 05:38:22;;;;;;;5.15;1.60;;;11.60;99.90;;;;;;5034033;28;20298;-64
2022/11/08 05:40:49;;;;;;;3.95;1.55;;;11.60;99.90;;;;;;5001599;28;20216;-65
2022/11/08 05:43:16;;;;;;;4.90;1.92;;;11.60;99.90;;;;;;5000256;28;20252;-63
2022/11/08 05:45:45;;;;;;;7.20;1.67;;;11.50;99.90;;;;;;5008880;28;20297;-64
2022/11/08 05:48:12;;;;;;;9.00;1.90;;;11.50;99.90;;;;;;5030904;28;20379;-64
2022/11/08 05:50:39;;;;;;;5.10;1.92;;;11.50;99.90;;;;;;5028327;28;20332;-64
2022/11/08 05:53:06;;;;;;;6.72;1.48;;;11.50;99.90;;;;;;5025569;28;20221;-63
2022/11/08 05:55:32;;;;;;;7.65;1.95;;;11.50;99.90;;;;;;5041481;28;21037;-64
2022/11/08 05:57:59;;;;;;;4.70;1.60;;;11.40;99.90;;;;;;4999585;28;20225;-64
2022/11/08 06:00:26;;;;;;;7.15;2.08;;;11.50;99.90;;;;;;5017759;28;20331;-64
2022/11/08 06:02:54;;;;;;;4.97;1.73;;;11.30;99.90;;;;;;5016147;28;20205;-64
2022/11/08 06:05:21;;;;;;;4.70;2.10;;;11.20;99.90;;;;;;5020933;28;20323;-63
2022/11/08 06:07:48;;;;;;;4.43;1.52;;;11.30;99.90;;;;;;5025978;28;20575;-64
2022/11/08 06:10:15;;;;;;;5.85;1.85;;;11.30;99.90;;;;;;5035012;28;20315;-64
2022/11/08 06:12:42;;;;;;;6.80;1.95;;;11.20;99.90;;;;;;4988232;28;20907;-64
2022/11/08 06:15:10;;;;;;;4.65;1.80;;;11.30;99.90;;;;;;5021729;28;20299;-63
2022/11/08 06:17:36;;;;;;;3.78;1.63;;;11.20;99.90;;;;;;5008949;28;20278;-63
2022/11/08 06:20:06;;;;;;;5.32;1.80;;;11.20;99.90;;;;;;5048288;28;20303;-64
2022/11/08 06:22:34;;;;;;;4.68;2.00;;;11.20;99.90;;;;;;5037461;28;20213;-63
2022/11/08 06:25:01;;;;;;;5.10;2.00;;;11.10;99.90;;;;;;5054769;28;20764;-63
2022/11/08 06:27:28;;;;;;;8.50;1.95;;;11.00;99.90;;;;;;5020916;28;20777;-65
2022/11/08 06:29:55;;;;;;;6.00;2.03;;;11.00;99.90;;;;;;5047306;28;20658;-64
2022/11/08 06:32:22;;;;;;;3.92;1.98;;;11.10;99.90;;;;;;5025079;28;20247;-64
2022/11/08 06:34:49;;;;;;;3.63;1.80;;;11.00;99.90;;;;;;5032577;28;20349;-64
2022/11/08 06:37:17;;;;;;;5.97;2.00;;;11.10;99.90;;;;;;5029714;28;20359;-63
2022/11/08 06:39:44;;;;;;;6.63;1.73;;;11.00;99.90;;;;;;5043440;28;20322;-63
2022/11/08 06:42:11;;;;;;;6.20;2.05;;;11.00;99.90;;;;;;5052303;28;20228;-64
2022/11/08 06:44:38;;;;;;;8.02;2.10;;;11.00;99.90;;;;;;5019040;28;20227;-62
2022/11/08 06:47:05;;;;;;;6.03;2.00;;;11.00;99.90;;;;;;5037718;28;20303;-62
2022/11/08 06:49:31;;;;;;;3.35;1.98;;;11.00;99.90;;;;;;5034665;28;20304;-62
2022/11/08 06:51:58;;;;;;;7.22;1.98;;;11.10;99.90;;;;;;5028742;28;20327;-62
2022/11/08 06:54:26;;;;;;;4.88;2.13;;;11.00;99.90;;;;;;5050049;28;20307;-62
2022/11/08 06:56:54;;;;;;;2.40;1.75;;;11.10;99.90;;;;;;5049788;28;20287;-63
2022/11/08 06:59:22;;;;;;;6.30;1.80;;;11.10;99.90;;;;;;5024615;28;20225;-63
2022/11/08 07:01:48;;;;;;;5.93;2.40;;;11.20;99.90;;;;;;5037482;28;20237;-63
2022/11/08 07:04:15;;;;;;;3.00;1.70;;;11.20;99.90;;;;;;5033303;28;20324;-63
2022/11/08 07:06:43;;;;;;;5.85;1.92;;;11.20;99.90;;;;;;5028134;28;20224;-63
2022/11/08 07:09:10;;;;;;;5.90;2.03;;;11.30;99.90;;;;;;5023612;28;20812;-62
2022/11/08 07:11:38;;;;;;;6.28;2.33;;;11.30;99.90;;;;;;5033910;28;20437;-63
2022/11/08 07:14:05;;;;;;;4.78;1.85;;;11.60;99.90;;;;;;5050031;28;20654;-63
2022/11/08 07:16:32;;;;;;;11.43;2.40;;;12.00;99.90;;;;;;4992624;28;20975;-63
2022/11/08 07:18:59;;;;;;;4.90;2.22;;;12.10;99.90;;;;;;5035403;28;20366;-63
2022/11/08 07:21:26;;;;;;;10.25;2.00;;;12.20;99.90;;;;;;5032302;28;20303;-63
2022/11/08 07:23:52;;;;;;;5.25;1.50;;;12.20;99.90;;;;;;5016261;28;20667;-63
2022/11/08 07:26:19;;;;;;;4.85;1.75;;;11.90;99.90;;;;;;5034238;28;20308;-63
2022/11/08 07:28:47;;;;;;;5.50;1.70;;;11.80;99.90;;;;;;5029632;28;20749;-62
2022/11/08 07:31:14;;;;;;;4.10;1.73;;;11.80;99.90;;;;;;5013594;28;20205;-63
2022/11/08 07:33:41;;;;;;;3.80;1.70;;;11.80;99.90;;;;;;5018446;28;20287;-63
2022/11/08 07:36:08;;;;;;;8.52;1.63;;;11.70;99.90;;;;;;5030415;28;20257;-63
2022/11/08 07:38:35;;;;;;;4.88;1.73;;;11.70;99.90;;;;;;5043701;28;20350;-63
2022/11/08 07:41:02;;;;;;;4.20;1.70;;;11.80;99.90;;;;;;5019135;28;20208;-63
2022/11/08 07:43:30;;;;;;;3.67;1.63;;;11.80;99.90;;;;;;5038952;28;20290;-63
2022/11/08 07:46:00;;;;;;;6.05;1.75;;;11.80;99.90;;;;;;5020761;28;20869;-63
2022/11/08 07:48:28;;;;;;;3.30;1.58;;;11.80;99.90;;;;;;5022850;28;20485;-63
2022/11/08 07:50:55;;;;;;;4.93;1.55;;;11.80;99.90;;;;;;5032602;28;20803;-63
2022/11/08 07:53:22;;;;;;;3.40;2.20;;;11.80;99.90;;;;;;5028643;28;20235;-63
2022/11/08 07:55:49;;;;;;;2.88;1.67;;;11.80;99.90;;;;;;5032979;28;20220;-63
2022/11/08 07:58:17;;;;;;;5.15;1.65;;;11.80;99.90;;;;;;5027362;28;20296;-63
2022/11/08 08:00:48;;;;;;;5.53;1.60;;;11.80;99.90;;;;;;5035100;28;20383;-63
2022/11/08 08:03:17;;;;;;;5.90;2.25;;;11.70;99.90;;;;;;5016824;28;20232;-62
2022/11/08 08:05:45;;;;;;;5.50;1.60;;;11.80;99.90;;;;;;5036249;28;20255;-63
2022/11/08 08:08:13;;;;;;;4.68;1.70;;;11.80;99.90;;;;;;5031936;28;20625;-63
2022/11/08 08:10:41;;;;;;;5.53;1.92;;;11.80;99.90;;;;;;5031016;28;20207;-63
2022/11/08 08:13:08;;;;;;;2.13;1.50;;;11.80;99.90;;;;;;5036400;28;20239;-63
2022/11/08 08:15:35;;;;;;;3.80;1.60;;;11.80;99.90;;;;;;5036436;28;20210;-63
2022/11/08 08:18:03;;;;;;;7.85;2.28;;;12.00;99.90;;;;;;5028648;28;20295;-63
2022/11/08 08:20:32;;;;;;;4.40;1.98;;;11.90;99.90;;;;;;5030343;28;20209;-63
2022/11/08 08:23:00;;;;;;;4.00;1.92;;;11.90;99.90;;;;;;5043466;28;20295;-62
2022/11/08 08:25:29;;;;;;;2.45;1.58;;;12.00;99.90;;;;;;5042635;28;20381;-63
2022/11/08 08:27:58;;;;;;;3.05;1.77;;;12.10;99.90;;;;;;5025295;28;20742;-63
2022/11/08 08:30:25;;;;;;;2.45;1.55;;;12.10;99.90;;;;;;5042923;28;20717;-63
2022/11/08 08:33:00;;;;;;;5.70;2.20;;;12.10;99.90;;;;;;5031827;28;20709;-64
2022/11/08 08:35:27;;;;;;;6.13;1.85;;;12.10;99.90;;;;;;5027927;28;20348;-63
2022/11/08 08:37:58;;;;;;;5.15;1.73;;;12.20;99.90;;;;;;5047858;28;20484;-63
2022/11/08 08:40:24;;;;;;;4.55;1.70;;;12.10;99.90;;;;;;5036390;28;20416;-63
2022/11/08 08:42:51;;;;;;;3.28;1.75;;;12.20;99.90;;;;;;5034297;28;20681;-63
2022/11/08 08:45:18;;;;;;;7.93;1.50;;;12.20;99.90;;;;;;5043481;28;20394;-63
2022/11/08 08:47:45;;;;;;;3.45;1.50;;;12.30;99.90;;;;;;5039490;28;20366;-63
2022/11/08 08:50:12;;;;;;;4.75;1.45;;;12.30;99.90;;;;;;5018916;28;20208;-63
2022/11/08 08:52:39;;;;;;;3.13;1.58;;;12.30;99.90;;;;;;5037734;28;20386;-63
2022/11/08 08:55:08;;;;;;;5.25;1.60;;;12.30;99.90;;;;;;5036149;28;20227;-63
2022/11/08 08:57:35;;;;;;;2.78;1.58;;;12.40;99.90;;;;;;5028462;28;20797;-63
2022/11/08 09:00:02;;;;;;;4.15;1.50;;;12.40;99.90;;;;;;5041486;28;20262;-63
2022/11/08 09:02:29;;;;;;;5.03;1.50;;;12.40;99.90;;;;;;5031793;28;20266;-63
2022/11/08 09:04:55;;;;;;;3.45;1.50;;;12.40;99.90;;;;;;5013049;28;22437;-64
2022/11/08 09:07:22;;;;;;;2.78;1.60;;;12.40;99.90;;;;;;5034472;28;20230;-63
2022/11/08 09:09:49;;;;;;;5.70;1.60;;;12.40;99.90;;;;;;5032295;28;20803;-63
2022/11/08 09:12:17;;;;;;;4.43;1.52;;;12.40;99.90;;;;;;5045597;28;20347;-63
2022/11/08 09:14:44;;;;;;;4.32;1.90;;;12.50;99.90;;;;;;5025170;28;20330;-63
2022/11/08 09:17:11;;;;;;;3.42;1.33;;;12.50;99.90;;;;;;5048759;28;20291;-64
2022/11/08 09:19:38;;;;;;;4.22;1.75;;;12.50;99.90;;;;;;5018633;28;20296;-64
2022/11/08 09:22:05;;;;;;;3.72;1.70;;;12.50;99.90;;;;;;5028070;28;20490;-63
2022/11/08 09:24:33;;;;;;;2.13;1.33;;;12.50;99.90;;;;;;5037112;28;20354;-63
2022/11/08 09:27:02;;;;;;;7.90;1.83;;;12.40;99.90;;;;;;5017054;28;20570;-64
2022/11/08 09:29:31;;;;;;;3.72;1.50;;;12.50;99.90;;;;;;5024037;28;20716;-64
2022/11/08 09:31:58;;;;;;;5.05;1.42;;;12.60;99.90;;;;;;5034710;28;20200;-64
2022/11/08 09:34:25;;;;;;;2.75;1.50;;;12.60;99.90;;;;;;5036765;28;20645;-63
2022/11/08 09:36:52;;;;;;;6.18;1.70;;;12.60;99.90;;;;;;5019907;28;20410;-64
2022/11/08 09:39:18;;;;;;;2.53;1.50;;;12.60;99.90;;;;;;5034879;28;20296;-63
2022/11/08 09:42:18;;;;;;;6.25;1.70;;;12.70;99.90;;;;;;5034412;28;20740;-64
2022/11/08 09:45:11;;;;;;;3.83;1.45;;;12.80;99.90;;;;;;5032711;28;20756;-63
2022/11/08 09:47:40;;;;;;;3.72;1.80;;;12.80;99.90;;;;;;5048682;28;20380;-64
2022/11/08 09:50:15;;;;;;;4.75;1.67;;;12.90;99.90;;;;;;5043177;28;20296;-64
2022/11/08 09:52:46;;;;;;;2.30;1.52;;;12.90;99.90;;;;;;5022348;28;20220;-64
2022/11/08 09:55:24;;;;;;;1.83;1.35;;;12.90;99.90;;;;;;5035696;28;20335;-64
2022/11/08 09:58:04;;;;;;;7.75;1.58;;;13.00;99.90;;;;;;5036872;28;20501;-64
2022/11/08 10:00:34;;;;;;;1.35;1.20;;;13.00;99.90;;;;;;5029312;28;20735;-64
2022/11/08 10:03:02;;;;;;;3.85;1.40;;;13.10;99.90;;;;;;5038218;28;20387;-63
2022/11/08 10:05:39;;;;;;;2.53;1.20;;;13.00;99.90;;;;;;5013803;28;20331;-64
2022/11/08 10:08:11;;;;;;;1.52;1.27;;;13.10;99.90;;;;;;5047203;28;20357;-64
2022/11/08 10:10:56;;;;;;;2.67;1.50;;;13.10;99.90;;;;;;5044320;28;20305;-64
2022/11/08 10:13:32;;;;;;;3.10;1.40;;;13.20;99.90;;;;;;5036192;28;20315;-63
2022/11/08 10:16:10;;;;;;;2.50;1.40;;;13.20;99.90;;;;;;5034264;28;20204;-65
2022/11/08 10:19:00;;;;;;;2.17;1.20;;;13.20;99.90;;;;;;5009536;28;20225;-63
2022/11/08 10:21:53;;;;;;;6.18;1.38;;;13.20;99.90;;;;;;5027218;28;20310;-65
2022/11/08 10:24:34;;;;;;;2.20;1.25;;;13.30;99.90;;;;;;5045769;28;20291;-63
2022/11/08 10:27:01;;;;;;;1.80;1.30;;;13.30;99.90;;;;;;5035797;28;20206;-64
2022/11/08 10:29:34;;;;;;;5.63;1.75;;;13.30;99.90;;;;;;5034489;28;20686;-63
2022/11/08 10:32:13;;;;;;;2.83;1.20;;;13.30;99.90;;;;;;5036225;28;20197;-63
2022/11/08 10:34:46;;;;;;;2.40;1.48;;;13.30;99.90;;;;;;5035926;28;20810;-63
2022/11/08 10:37:15;;;;;;;2.60;1.42;;;13.40;99.90;;;;;;5019303;28;20209;-64
2022/11/08 10:39:50;;;;;;;2.72;1.35;;;13.40;99.90;;;;;;5045444;28;20281;-63
2022/11/08 10:42:25;;;;;;;2.05;1.40;;;13.40;99.90;;;;;;5040408;28;20287;-63
2022/11/08 10:44:52;;;;;;;3.05;1.40;;;13.40;99.90;;;;;;5034391;28;20318;-64
2022/11/08 10:47:25;;;;;;;4.38;1.20;;;13.40;99.90;;;;;;5034022;28;20402;-64
2022/11/08 10:49:53;;;;;;;3.30;1.40;;;13.50;99.90;;;;;;5033075;28;20225;-63
2022/11/08 10:52:27;;;;;;;3.78;1.40;;;13.50;99.90;;;;;;5015511;28;21710;-64
2022/11/08 10:54:55;;;;;;;3.80;1.60;;;13.50;99.90;;;;;;5046841;28;20220;-63
2022/11/08 10:57:35;;;;;;;4.78;1.65;;;13.50;99.90;;;;;;5033545;28;20398;-63
2022/11/08 11:00:17;;;;;;;1.75;1.33;;;13.50;99.90;;;;;;5044998;28;20377;-64
2022/11/08 11:02:48;;;;;;;4.78;1.40;;;13.50;99.90;;;;;;5042953;28;21030;-64
2022/11/08 11:05:27;;;;;;;7.15;1.60;;;13.50;99.90;;;;;;5013620;28;20316;-64
2022/11/08 11:08:02;;;;;;;2.90;1.40;;;13.50;99.90;;;;;;5037228;28;20303;-64
2022/11/08 11:10:31;;;;;;;4.32;1.40;;;13.40;99.90;;;;;;5043868;28;20197;-63
2022/11/08 11:13:04;;;;;;;2.95;1.65;;;13.60;99.90;;;;;;5034363;28;20837;-64
2022/11/08 11:15:36;;;;;;;1.98;1.50;;;13.60;99.90;;;;;;5037513;28;20287;-64
2022/11/08 11:18:16;;;;;;;3.70;1.48;;;13.60;99.90;;;;;;5028530;28;20375;-64
2022/11/08 11:20:56;;;;;;;2.28;1.20;;;13.60;99.90;;;;;;5036476;28;20483;-63
2022/11/08 11:23:23;;;;;;;2.28;1.45;;;13.60;99.90;;;;;;5047126;28;20440;-63
2022/11/08 11:25:51;;;;;;;2.53;1.35;;;13.60;99.90;;;;;;5015139;28;20228;-64
2022/11/08 11:28:18;;;;;;;3.75;1.30;;;13.60;99.90;;;;;;5027206;28;20400;-64
2022/11/08 11:31:00;;;;;;;1.38;1.13;;;13.60;99.90;;;;;;5031800;28;22168;-63
2022/11/08 11:33:29;;;;;;;2.10;1.30;;;13.70;99.90;;;;;;5027767;28;20229;-64
2022/11/08 11:36:00;;;;;;;1.98;1.30;;;13.70;99.90;;;;;;5036816;28;20270;-64
2022/11/08 11:38:37;;;;;;;2.17;1.52;;;13.80;99.90;;;;;;5040749;28;20258;-63
2022/11/08 11:41:12;;;;;;;4.05;1.30;;;13.80;99.90;;;;;;5017596;28;20626;-64
2022/11/08 11:43:44;;;;;;;1.42;1.05;;;13.80;99.90;;;;;;5046083;28;20342;-63
2022/11/08 11:46:19;;;;;;;1.83;1.13;;;13.80;99.90;;;;;;5015881;28;20375;-64
2022/11/08 11:48:52;;;;;;;3.33;1.45;;;13.90;99.90;;;;;;5026063;28;20388;-64
2022/11/08 11:51:19;;;;;;;1.90;1.15;;;13.90;99.90;;;;;;5033895;28;20305;-63
2022/11/08 11:53:47;;;;;;;1.27;0.93;;;14.00;99.90;;;;;;5043429;28;20560;-63
2022/11/08 11:56:43;;;;;;;2.22;1.40;;;14.00;99.90;;;;;;5009767;28;20223;-64
2022/11/08 11:59:35;;;;;;;1.30;1.20;;;14.10;99.90;;;;;;5019038;28;20288;-63
2022/11/08 12:02:45;;;;;;;3.22;1.35;;;14.10;99.90;;;;;;5038479;28;20327;-63
2022/11/08 12:05:33;;;;;;;3.63;1.40;;;14.10;99.90;;;;;;5037099;28;20295;-64
2022/11/08 12:08:15;;;;;;;2.90;1.98;;;14.10;99.90;;;;;;5034587;28;20288;-63
2022/11/08 12:10:59;;;;;;;5.38;2.50;;;14.20;99.90;;;;;;5022866;28;20293;-63
2022/11/08 12:13:34;;;;;;;4.22;1.70;;;14.20;99.90;;;;;;5038147;28;20315;-63
2022/11/08 12:16:08;;;;;;;2.17;1.23;;;14.20;99.90;;;;;;5035259;28;20350;-63
2022/11/08 12:18:59;;;;;;;4.38;1.55;;;14.10;99.90;;;;;;5035960;28;20824;-63
2022/11/08 12:21:37;;;;;;;4.75;1.80;;;14.10;99.90;;;;;;5022527;28;20304;-64
2022/11/08 12:24:29;;;;;;;1.73;1.52;;;14.20;99.90;;;;;;5045912;28;22235;-63
2022/11/08 12:27:01;;;;;;;3.67;1.70;;;14.20;99.90;;;;;;5004035;28;20205;-63
2022/11/08 12:29:32;;;;;;;1.90;1.50;;;14.20;99.90;;;;;;5036830;28;20221;-63
2022/11/08 12:32:18;;;;;;;1.65;1.50;;;14.20;99.90;;;;;;5032543;28;20792;-63
2022/11/08 12:34:59;;;;;;;4.45;1.73;;;14.20;99.90;;;;;;5043329;28;20291;-64
2022/11/08 12:37:41;;;;;;;3.85;1.60;;;14.20;99.90;;;;;;5022783;28;20318;-63
2022/11/08 12:40:19;;;;;;;2.08;1.33;;;14.20;99.90;;;;;;5051004;28;20328;-63
2022/11/08 12:43:08;;;;;;;3.95;2.00;;;14.20;99.90;;;;;;5022603;28;20888;-64
2022/11/08 12:46:00;;;;;;;2.17;1.38;;;14.30;99.90;;;;;;5042853;28;21017;-64
2022/11/08 12:48:38;;;;;;;2.63;1.70;;;14.30;99.90;;;;;;5017924;28;20602;-63
2022/11/08 12:51:11;;;;;;;3.53;1.50;;;14.30;99.90;;;;;;5047594;28;20220;-64
2022/11/08 12:54:06;;;;;;;3.92;1.55;;;14.30;99.90;;;;;;5020921;28;20480;-63
2022/11/08 12:56:37;;;;;;;3.45;1.58;;;14.30;99.90;;;;;;5010648;28;20579;-64
2022/11/08 12:59:12;;;;;;;3.80;1.50;;;14.40;99.90;;;;;;5049292;28;20292;-64
2022/11/08 13:01:39;;;;;;;2.03;1.30;;;14.40;99.90;;;;;;5032753;28;20228;-64
2022/11/08 13:04:35;;;;;;;3.25;1.33;;;14.40;99.90;;;;;;5022225;28;20201;-64
2022/11/08 13:07:15;;;;;;;5.82;1.23;;;14.40;99.90;;;;;;5023826;28;20236;-64
2022/11/08 13:09:47;;;;;;;1.65;1.40;;;14.40;99.90;;;;;;5032202;28;20329;-63
2022/11/08 13:12:26;;;;;;;4.13;1.50;;;14.40;99.90;;;;;;5018126;28;20322;-63
2022/11/08 13:14:53;;;;;;;2.83;1.35;;;14.40;99.90;;;;;;5044967;28;20326;-63
2022/11/08 13:17:23;;;;;;;9.50;3.60;;;14.50;99.90;;;;;;5017858;28;20363;-64
2022/11/08 13:19:56;;;;;;;3.17;2.05;;;14.50;99.90;;;;;;5030394;28;20239;-63
2022/11/08 13:23:08;;;;;;;5.13;1.70;;;14.40;99.90;;;;;;5027003;28;20307;-63